Time;durP1;ratioP1;P1;durP2;ratioP2;P2;SDS_P1;SDS_P2;PMS_P1;PMS_P2;Temp;Humidity;BMP_temperature;BMP_pressure;BME280_temperature;BME280_humidity;BME280_pressure;Samples;Min_cycle;Max_cycle;Signal;HPM_P1;HPM_P2
2024/02/07 00:01:31;;;;;;;2.60;1.30;;;16.00;99.90;;;;;;5051467;28;20028;-74
2024/02/07 00:03:59;;;;;;;3.80;1.23;;;15.90;99.90;;;;;;5046761;28;20039;-74
2024/02/07 00:06:26;;;;;;;2.85;1.00;;;16.00;99.90;;;;;;5038311;28;20017;-73
2024/02/07 00:08:51;;;;;;;5.22;1.42;;;15.90;99.90;;;;;;5041948;28;20036;-74
2024/02/07 00:11:17;;;;;;;2.97;1.00;;;15.90;99.90;;;;;;5051850;28;21779;-74
2024/02/07 00:13:43;;;;;;;4.20;1.40;;;15.90;99.90;;;;;;5041461;28;20029;-73
2024/02/07 00:16:10;;;;;;;3.20;1.10;;;15.90;99.90;;;;;;5043645;28;20040;-73
2024/02/07 00:18:36;;;;;;;4.25;1.42;;;15.90;99.90;;;;;;5041558;28;20053;-74
2024/02/07 00:21:01;;;;;;;1.80;0.90;;;15.90;99.90;;;;;;5047388;28;20037;-73
2024/02/07 00:23:27;;;;;;;3.53;1.40;;;15.90;99.90;;;;;;5049597;28;20484;-73
2024/02/07 00:25:53;;;;;;;4.53;1.40;;;15.90;99.90;;;;;;5043142;28;20031;-73
2024/02/07 00:28:19;;;;;;;2.60;0.73;;;15.80;99.90;;;;;;5050681;28;20186;-73
2024/02/07 00:30:45;;;;;;;2.63;1.23;;;15.80;99.90;;;;;;5046816;28;20029;-73
2024/02/07 00:33:11;;;;;;;1.80;0.83;;;15.80;99.90;;;;;;5049144;28;20045;-73
2024/02/07 00:35:37;;;;;;;4.77;1.30;;;15.80;99.90;;;;;;5051287;28;20100;-73
2024/02/07 00:38:03;;;;;;;3.00;0.82;;;15.80;99.90;;;;;;5051666;28;20025;-73
2024/02/07 00:40:30;;;;;;;5.07;1.33;;;15.80;99.90;;;;;;5050824;28;20128;-73
2024/02/07 00:42:56;;;;;;;2.90;0.70;;;15.80;99.90;;;;;;5050656;28;20078;-74
2024/02/07 00:45:22;;;;;;;3.95;1.20;;;15.80;99.90;;;;;;5050005;28;20119;-73
2024/02/07 00:47:48;;;;;;;1.98;0.85;;;15.70;99.90;;;;;;5049736;28;20036;-73
2024/02/07 00:50:15;;;;;;;3.08;0.90;;;15.80;99.90;;;;;;5051171;28;20044;-73
2024/02/07 00:52:41;;;;;;;3.08;0.77;;;15.70;99.90;;;;;;5050830;28;20104;-74
2024/02/07 00:55:07;;;;;;;3.73;1.40;;;15.70;99.90;;;;;;5049323;28;20132;-74
2024/02/07 00:57:33;;;;;;;2.20;1.00;;;15.70;99.90;;;;;;5046034;28;20103;-74
2024/02/07 00:59:58;;;;;;;1.83;0.67;;;15.70;99.90;;;;;;5048007;28;20510;-74
2024/02/07 01:02:24;;;;;;;3.70;1.10;;;15.70;99.90;;;;;;5041981;28;20033;-74
2024/02/07 01:04:51;;;;;;;2.40;1.23;;;15.70;99.90;;;;;;5040723;28;20025;-74
2024/02/07 01:07:17;;;;;;;1.05;0.60;;;15.60;99.90;;;;;;5051034;28;20051;-74
2024/02/07 01:09:44;;;;;;;3.53;0.90;;;15.60;99.90;;;;;;5045482;28;20040;-74
2024/02/07 01:12:09;;;;;;;3.78;0.80;;;15.60;99.90;;;;;;5046034;28;20390;-74
2024/02/07 01:14:35;;;;;;;0.80;0.60;;;15.60;99.90;;;;;;5048480;28;20032;-74
2024/02/07 01:17:01;;;;;;;3.00;1.07;;;15.60;99.90;;;;;;5045406;28;20246;-74
2024/02/07 01:19:26;;;;;;;4.83;0.80;;;15.60;99.90;;;;;;5034204;28;20045;-74
2024/02/07 01:21:52;;;;;;;2.87;0.67;;;15.60;99.90;;;;;;5047687;28;20024;-73
2024/02/07 01:24:19;;;;;;;1.77;0.80;;;15.60;99.90;;;;;;5046651;28;20466;-74
2024/02/07 01:26:44;;;;;;;2.28;0.68;;;15.60;99.90;;;;;;5032754;28;20113;-73
2024/02/07 01:29:10;;;;;;;3.30;0.90;;;15.60;99.90;;;;;;5031167;28;20460;-73
2024/02/07 01:31:36;;;;;;;1.97;0.70;;;15.60;99.90;;;;;;5037632;28;20033;-76
2024/02/07 01:34:02;;;;;;;3.10;0.57;;;15.60;99.90;;;;;;5043940;28;20036;-73
2024/02/07 01:36:27;;;;;;;4.63;1.20;;;15.50;99.90;;;;;;5041940;28;20455;-73
2024/02/07 01:38:55;;;;;;;1.00;0.60;;;15.50;99.90;;;;;;5043210;28;20037;-74
2024/02/07 01:41:30;;;;;;;4.53;1.00;;;15.50;99.90;;;;;;5041400;28;20509;-74
2024/02/07 01:43:56;;;;;;;3.03;1.08;;;15.50;99.90;;;;;;5030611;28;20038;-73
2024/02/07 01:46:23;;;;;;;1.65;0.80;;;15.50;99.90;;;;;;5048962;28;20358;-73
2024/02/07 01:48:49;;;;;;;2.38;0.80;;;15.50;99.90;;;;;;5038843;28;20116;-73
2024/02/07 01:51:16;;;;;;;3.08;0.80;;;15.40;99.90;;;;;;5043242;28;20029;-73
2024/02/07 01:53:42;;;;;;;2.97;0.95;;;15.50;99.90;;;;;;5044118;28;20075;-73
2024/02/07 01:56:10;;;;;;;;;;;15.50;99.90;;;;;;5049788;28;20036;-74
2024/02/07 01:58:35;;;;;;;3.25;0.60;;;15.40;99.90;;;;;;5054080;28;19919;-73
2024/02/07 02:01:02;;;;;;;2.40;0.93;;;15.40;99.90;;;;;;5044770;28;20041;-73
2024/02/07 02:03:28;;;;;;;;;;;15.40;99.90;;;;;;5043207;28;20108;-73
2024/02/07 02:05:55;;;;;;;0.70;0.53;;;15.40;99.90;;;;;;5047999;28;20004;-73
2024/02/07 02:08:21;;;;;;;2.05;0.68;;;15.40;99.90;;;;;;5049700;28;20769;-73
2024/02/07 02:10:51;;;;;;;3.83;0.80;;;15.40;99.90;;;;;;5053306;28;20094;-73
2024/02/07 02:13:17;;;;;;;1.65;0.80;;;15.40;99.90;;;;;;5052373;28;20037;-73
2024/02/07 02:15:46;;;;;;;1.85;0.82;;;15.40;99.90;;;;;;5052379;28;20025;-74
2024/02/07 02:18:12;;;;;;;1.77;0.70;;;15.40;99.90;;;;;;5054047;28;20044;-73
2024/02/07 02:20:38;;;;;;;4.97;0.90;;;15.30;99.90;;;;;;5044833;28;20029;-73
2024/02/07 02:23:09;;;;;;;2.70;1.15;;;15.30;99.90;;;;;;5038707;28;20379;-73
2024/02/07 02:25:49;;;;;;;3.00;0.60;;;15.30;99.90;;;;;;5051636;28;20063;-73
2024/02/07 02:28:52;;;;;;;1.17;0.65;;;15.30;99.90;;;;;;5050495;28;20099;-74
2024/02/07 02:31:19;;;;;;;2.08;0.70;;;15.30;99.90;;;;;;5006554;28;20046;-74
2024/02/07 02:33:48;;;;;;;3.17;0.60;;;15.30;99.90;;;;;;5000404;28;20034;-73
2024/02/07 02:36:15;;;;;;;2.10;0.70;;;15.30;99.90;;;;;;4988769;28;20031;-74
2024/02/07 02:38:41;;;;;;;2.30;0.80;;;15.30;99.90;;;;;;5004113;28;20618;-74
2024/02/07 02:41:08;;;;;;;2.60;0.60;;;15.30;99.90;;;;;;5001951;28;20042;-75
2024/02/07 02:43:34;;;;;;;3.60;0.50;;;15.30;99.90;;;;;;4998155;28;20431;-74
2024/02/07 02:46:02;;;;;;;2.72;0.85;;;15.20;99.90;;;;;;5009205;28;20038;-74
2024/02/07 02:48:28;;;;;;;3.88;0.70;;;15.20;99.90;;;;;;4991048;28;20030;-74
2024/02/07 02:50:54;;;;;;;1.97;0.70;;;15.30;99.90;;;;;;5001289;28;20106;-74
2024/02/07 02:53:19;;;;;;;1.75;0.60;;;15.20;99.90;;;;;;5006457;28;20046;-73
2024/02/07 02:55:45;;;;;;;0.83;0.47;;;15.20;99.90;;;;;;5005494;28;20034;-74
2024/02/07 02:58:11;;;;;;;3.63;0.77;;;15.20;99.90;;;;;;5001811;28;20088;-73
2024/02/07 03:00:37;;;;;;;1.37;0.50;;;15.20;99.90;;;;;;5009606;28;20045;-77
2024/02/07 03:03:03;;;;;;;2.00;0.90;;;15.20;99.90;;;;;;4991848;28;20479;-74
2024/02/07 03:10:38;;;;;;;2.75;0.55;;;15.20;99.90;;;;;;5038896;28;20033;-74
2024/02/07 03:13:04;;;;;;;4.28;0.82;;;15.20;99.90;;;;;;5045643;28;20108;-76
2024/02/07 03:15:30;;;;;;;3.97;1.00;;;15.20;99.90;;;;;;5037683;28;20482;-74
2024/02/07 03:17:56;;;;;;;3.20;0.80;;;15.10;99.90;;;;;;5041909;28;20065;-74
2024/02/07 03:20:22;;;;;;;3.70;0.45;;;15.10;99.90;;;;;;5034223;28;20111;-74
2024/02/07 03:22:49;;;;;;;1.08;0.52;;;15.10;99.90;;;;;;5042051;28;20382;-74
2024/02/07 03:25:18;;;;;;;3.67;0.80;;;15.10;99.90;;;;;;5043498;28;20029;-73
2024/02/07 03:27:50;;;;;;;5.03;0.70;;;15.10;99.90;;;;;;5041965;28;20049;-74
2024/02/07 03:30:20;;;;;;;1.95;0.63;;;15.10;99.90;;;;;;5041693;28;20090;-74
2024/02/07 03:32:46;;;;;;;0.98;0.30;;;15.10;99.90;;;;;;5041321;28;20028;-74
2024/02/07 03:35:14;;;;;;;2.08;0.77;;;15.10;99.90;;;;;;5039731;28;20030;-73
2024/02/07 03:37:40;;;;;;;3.50;0.68;;;15.10;99.90;;;;;;5048488;28;20033;-74
2024/02/07 03:40:12;;;;;;;3.90;0.95;;;15.00;99.90;;;;;;5043445;28;20383;-74
2024/02/07 03:42:38;;;;;;;1.33;0.50;;;15.00;99.90;;;;;;5041050;28;20587;-74
2024/02/07 03:45:06;;;;;;;3.63;0.68;;;15.00;99.90;;;;;;5046355;28;20052;-74
2024/02/07 03:47:33;;;;;;;2.47;0.60;;;15.00;99.90;;;;;;5048496;28;20025;-73
2024/02/07 03:49:58;;;;;;;0.95;0.57;;;15.00;99.90;;;;;;5040903;28;20035;-73
2024/02/07 03:52:24;;;;;;;1.47;0.50;;;15.00;99.90;;;;;;5034258;28;20041;-73
2024/02/07 03:54:50;;;;;;;3.13;0.43;;;15.00;99.90;;;;;;5044815;28;20025;-73
2024/02/07 03:57:19;;;;;;;2.37;0.37;;;15.00;99.90;;;;;;5044926;28;20033;-74
2024/02/07 03:59:45;;;;;;;2.22;0.68;;;15.00;99.90;;;;;;5049709;28;20037;-74
2024/02/07 04:02:21;;;;;;;;;;;15.00;99.90;;;;;;5052076;28;20047;-74
2024/02/07 04:04:50;;;;;;;2.65;0.70;;;15.00;99.90;;;;;;5044034;28;19917;-74
2024/02/07 04:07:20;;;;;;;3.17;0.82;;;14.90;99.90;;;;;;5051645;28;20257;-74
2024/02/07 04:09:46;;;;;;;1.40;0.50;;;14.90;99.90;;;;;;5047022;28;20116;-74
2024/02/07 05:17:21;;;;;;;3.90;0.90;;;14.70;99.90;;;;;;5050845;28;20032;-74
2024/02/07 05:19:48;;;;;;;1.88;0.40;;;14.70;99.90;;;;;;5050113;28;20030;-73
2024/02/07 05:22:14;;;;;;;0.63;0.40;;;14.70;99.90;;;;;;5050058;28;20036;-74
2024/02/07 05:24:40;;;;;;;1.15;0.30;;;14.70;99.90;;;;;;5038067;28;20029;-74
2024/02/07 05:27:06;;;;;;;3.47;0.60;;;14.70;99.90;;;;;;5049025;28;20029;-74
2024/02/07 05:29:35;;;;;;;1.48;0.65;;;14.70;99.90;;;;;;5037891;28;20468;-74
2024/02/07 05:32:01;;;;;;;0.77;0.32;;;14.60;99.90;;;;;;5049617;28;20612;-74
2024/02/07 05:34:27;;;;;;;0.85;0.40;;;14.60;99.90;;;;;;5049421;28;20033;-73
2024/02/07 05:36:53;;;;;;;3.27;0.77;;;14.70;99.90;;;;;;5045382;28;20494;-74
2024/02/07 05:39:19;;;;;;;4.37;0.67;;;14.70;99.90;;;;;;5032551;28;20116;-74
2024/02/07 05:41:45;;;;;;;5.78;0.75;;;14.60;99.90;;;;;;5034103;28;20043;-74
2024/02/07 05:44:12;;;;;;;9.98;2.05;;;14.70;99.90;;;;;;5045728;28;20028;-74
2024/02/07 05:46:38;;;;;;;;;;;14.60;99.90;;;;;;5046039;28;20028;-74
2024/02/07 05:49:04;;;;;;;9.70;1.50;;;14.60;99.90;;;;;;5038560;28;20657;-74
2024/02/07 05:51:29;;;;;;;3.87;1.10;;;14.60;99.90;;;;;;5038876;28;20594;-75
2024/02/07 05:53:55;;;;;;;17.33;1.73;;;14.60;99.90;;;;;;5034884;28;20406;-74
2024/02/07 05:56:21;;;;;;;4.00;1.00;;;14.60;99.90;;;;;;5034511;28;20025;-74
2024/02/07 05:58:51;;;;;;;10.37;4.70;;;14.60;99.90;;;;;;5032356;28;20049;-74
2024/02/07 06:01:21;;;;;;;33.78;26.65;;;14.60;99.90;;;;;;5045651;28;20029;-75
2024/02/07 06:03:53;;;;;;;17.38;14.15;;;14.60;99.90;;;;;;5038620;28;20143;-75
2024/02/07 06:06:20;;;;;;;12.68;8.75;;;14.60;99.90;;;;;;5038189;28;20024;-74
2024/02/07 06:08:47;;;;;;;12.27;8.07;;;14.60;99.90;;;;;;5048310;28;20037;-74
2024/02/07 06:11:14;;;;;;;14.75;7.13;;;14.60;99.90;;;;;;5036585;28;20391;-75
2024/02/07 06:13:39;;;;;;;15.63;6.95;;;14.60;99.90;;;;;;5041315;28;20021;-75
2024/02/07 06:16:06;;;;;;;12.10;6.50;;;14.60;99.90;;;;;;5045158;28;20102;-75
2024/02/07 06:18:31;;;;;;;13.40;6.85;;;14.60;99.90;;;;;;5041970;28;20458;-76
2024/02/07 06:20:57;;;;;;;8.07;5.47;;;14.60;99.90;;;;;;5037465;28;20090;-75
2024/02/07 06:23:23;;;;;;;11.50;5.77;;;14.60;99.90;;;;;;5042256;28;20024;-75
2024/02/07 06:25:49;;;;;;;11.87;5.07;;;14.60;99.90;;;;;;5047647;28;20445;-75
2024/02/07 06:28:15;;;;;;;9.05;4.57;;;14.60;99.90;;;;;;5049081;28;20051;-76
2024/02/07 06:30:41;;;;;;;7.55;4.20;;;14.60;99.90;;;;;;5052463;28;20107;-75
2024/02/07 06:33:08;;;;;;;7.32;4.60;;;14.60;99.90;;;;;;5048322;28;20036;-76
2024/02/07 06:35:34;;;;;;;11.52;4.43;;;14.60;99.90;;;;;;5039588;28;20029;-75
2024/02/07 06:38:00;;;;;;;7.77;3.90;;;14.60;99.90;;;;;;5048332;28;20099;-75
2024/02/07 06:40:27;;;;;;;4.50;4.10;;;14.50;99.90;;;;;;5049487;28;20045;-76
2024/02/07 06:42:53;;;;;;;7.72;4.35;;;14.50;99.90;;;;;;5052986;28;20104;-75
2024/02/07 06:45:19;;;;;;;9.90;4.00;;;14.50;99.90;;;;;;5052058;28;20112;-74
2024/02/07 06:47:45;;;;;;;6.83;4.47;;;14.60;99.90;;;;;;5053192;28;20036;-75
2024/02/07 06:50:11;;;;;;;4.65;3.35;;;14.50;99.90;;;;;;5051446;28;20457;-75
2024/02/07 06:52:38;;;;;;;6.67;3.37;;;14.50;99.90;;;;;;5052812;28;20052;-75
2024/02/07 06:55:04;;;;;;;9.68;4.13;;;14.60;99.90;;;;;;5051863;28;20080;-75
2024/02/07 06:57:30;;;;;;;7.10;3.50;;;14.50;99.90;;;;;;5051506;28;20055;-76
2024/02/07 06:59:56;;;;;;;7.63;3.33;;;14.50;99.90;;;;;;5052537;28;20297;-76
2024/02/07 07:02:23;;;;;;;3.63;3.00;;;14.60;99.90;;;;;;5051350;28;20044;-77
2024/02/07 07:04:49;;;;;;;6.28;3.22;;;14.50;99.90;;;;;;5053010;28;20025;-75
2024/02/07 07:07:16;;;;;;;8.32;3.38;;;14.50;99.90;;;;;;5051601;28;20712;-75
2024/02/07 07:09:42;;;;;;;6.90;3.13;;;14.60;99.90;;;;;;5051145;28;20110;-75
2024/02/07 07:12:08;;;;;;;12.17;4.70;;;14.60;99.90;;;;;;5050983;28;20087;-75
2024/02/07 07:14:39;;;;;;;11.00;3.63;;;14.60;99.90;;;;;;5050857;28;20024;-76
2024/02/07 07:17:04;;;;;;;7.35;3.28;;;14.60;99.90;;;;;;5051090;28;20265;-74
2024/02/07 07:19:30;;;;;;;9.93;4.20;;;14.60;99.90;;;;;;5044605;28;20086;-76
2024/02/07 07:21:56;;;;;;;14.97;4.50;;;14.70;99.90;;;;;;5050467;28;20044;-76
2024/02/07 07:24:21;;;;;;;14.10;4.20;;;14.70;99.90;;;;;;5047818;28;20525;-76
2024/02/07 07:26:47;;;;;;;11.03;6.67;;;14.70;99.90;;;;;;5052612;28;20049;-75
2024/02/07 07:29:13;;;;;;;16.33;5.33;;;14.80;99.90;;;;;;5052048;28;20135;-75
2024/02/07 07:31:38;;;;;;;13.50;5.73;;;14.80;99.90;;;;;;5053838;28;20367;-75
2024/02/07 07:34:04;;;;;;;9.73;5.43;;;14.80;99.90;;;;;;5049255;28;20040;-75
2024/02/07 07:36:30;;;;;;;18.00;7.93;;;14.80;99.90;;;;;;5044639;28;20033;-76
2024/02/07 07:38:55;;;;;;;21.30;10.20;;;14.80;99.90;;;;;;5041510;28;20048;-75
2024/02/07 07:41:21;;;;;;;23.33;12.03;;;14.80;99.90;;;;;;5046437;28;20021;-76
2024/02/07 07:43:47;;;;;;;25.67;14.57;;;14.80;99.90;;;;;;5050787;28;20025;-76
2024/02/07 07:46:12;;;;;;;94.20;67.17;;;14.80;99.90;;;;;;5041190;28;20029;-75
2024/02/07 07:48:38;;;;;;;37.90;24.80;;;14.80;99.90;;;;;;5052044;28;20041;-76
2024/02/07 07:51:08;;;;;;;31.20;21.70;;;14.90;99.90;;;;;;5051137;28;20028;-77
2024/02/07 07:53:33;;;;;;;39.50;23.23;;;14.90;99.90;;;;;;5050252;28;20063;-76
2024/02/07 07:55:59;;;;;;;39.77;22.87;;;14.90;99.90;;;;;;5051695;28;20060;-76
2024/02/07 07:58:25;;;;;;;35.22;20.85;;;14.90;99.90;;;;;;5050573;28;20482;-75
2024/02/07 08:00:51;;;;;;;31.63;19.60;;;14.90;99.90;;;;;;5050492;28;20083;-76
2024/02/07 08:03:16;;;;;;;28.47;18.93;;;14.90;99.90;;;;;;5052090;28;20470;-76
2024/02/07 08:05:42;;;;;;;32.30;18.37;;;15.00;99.90;;;;;;5052027;28;20027;-75
2024/02/07 08:08:08;;;;;;;33.03;16.63;;;15.00;99.90;;;;;;5049621;28;20368;-75
2024/02/07 08:10:35;;;;;;;26.08;15.15;;;15.00;99.90;;;;;;5051890;28;20029;-75
2024/02/07 08:13:02;;;;;;;30.85;14.75;;;15.00;99.90;;;;;;5051426;28;20119;-75
2024/02/07 08:15:27;;;;;;;28.10;15.40;;;15.00;99.90;;;;;;5051599;28;20059;-76
2024/02/07 08:17:53;;;;;;;26.83;15.60;;;15.00;99.90;;;;;;5049869;28;20435;-76
2024/02/07 08:20:22;;;;;;;22.33;13.70;;;15.00;99.90;;;;;;5046932;28;20051;-75
2024/02/07 08:22:48;;;;;;;28.95;13.70;;;15.00;99.90;;;;;;5047173;28;20031;-76
2024/02/07 08:25:14;;;;;;;22.10;12.75;;;15.00;99.90;;;;;;5046285;28;20038;-75
2024/02/07 08:27:40;;;;;;;32.65;17.15;;;15.00;99.90;;;;;;5047847;28;20114;-74
2024/02/07 08:30:06;;;;;;;29.90;15.73;;;15.10;99.90;;;;;;5051311;28;20048;-76
2024/02/07 08:32:32;;;;;;;37.00;17.08;;;15.10;99.90;;;;;;5051257;28;20143;-74
2024/02/07 08:34:59;;;;;;;27.90;16.27;;;15.10;99.90;;;;;;5038896;28;20044;-75
2024/02/07 08:37:26;;;;;;;33.15;15.43;;;15.20;99.90;;;;;;5043115;28;20122;-74
2024/02/07 08:39:53;;;;;;;31.02;14.93;;;15.20;99.90;;;;;;5046058;28;20047;-75
2024/02/07 08:42:18;;;;;;;112.43;83.75;;;15.30;99.90;;;;;;5049265;28;20051;-74
2024/02/07 08:44:44;;;;;;;57.17;34.30;;;15.30;99.90;;;;;;5049006;28;20060;-75
2024/02/07 08:47:10;;;;;;;52.97;34.17;;;15.30;99.90;;;;;;5051378;28;20033;-74
2024/02/07 08:49:35;;;;;;;44.23;32.13;;;15.30;99.90;;;;;;5050770;28;20063;-74
2024/02/07 08:52:01;;;;;;;50.50;31.87;;;15.30;99.90;;;;;;5048589;28;20470;-75
2024/02/07 08:54:27;;;;;;;43.27;29.40;;;15.40;99.90;;;;;;5048112;28;20100;-76
2024/02/07 08:56:53;;;;;;;40.13;27.83;;;15.40;99.90;;;;;;5049120;28;20123;-75
2024/02/07 08:59:18;;;;;;;45.83;28.40;;;15.50;99.90;;;;;;5050359;28;20037;-76
2024/02/07 09:01:44;;;;;;;53.70;27.73;;;15.50;99.90;;;;;;5049016;28;20020;-75
2024/02/07 09:04:10;;;;;;;57.57;28.87;;;15.50;99.90;;;;;;5048647;28;20459;-75
2024/02/07 09:06:35;;;;;;;46.07;25.83;;;15.60;99.90;;;;;;5049991;28;20124;-75
2024/02/07 09:09:02;;;;;;;43.50;25.33;;;15.60;99.90;;;;;;5050691;28;20039;-75
2024/02/07 09:11:28;;;;;;;39.67;23.42;;;15.60;99.90;;;;;;5049088;28;20028;-75
2024/02/07 09:13:54;;;;;;;42.88;22.90;;;15.70;99.90;;;;;;5047499;28;20036;-75
2024/02/07 09:16:20;;;;;;;38.58;22.55;;;15.70;99.90;;;;;;5044685;28;20033;-75
2024/02/07 09:18:46;;;;;;;34.83;22.63;;;15.80;99.90;;;;;;5040220;28;20549;-75
2024/02/07 09:21:11;;;;;;;37.17;21.50;;;15.90;99.90;;;;;;5039462;28;20029;-75
2024/02/07 09:23:37;;;;;;;37.03;20.03;;;15.80;99.90;;;;;;5048970;28;20031;-75
2024/02/07 09:26:04;;;;;;;36.33;19.57;;;15.90;99.90;;;;;;5048450;28;20021;-76
2024/02/07 09:28:30;;;;;;;27.92;19.13;;;15.90;99.90;;;;;;5046257;28;20048;-75
2024/02/07 09:30:55;;;;;;;33.37;20.70;;;16.00;99.90;;;;;;5047820;28;20031;-75
2024/02/07 09:33:22;;;;;;;32.65;19.00;;;16.10;99.90;;;;;;5046333;28;20056;-75
2024/02/07 09:35:48;;;;;;;25.03;17.90;;;16.20;99.90;;;;;;5047295;28;20021;-75
2024/02/07 09:38:14;;;;;;;36.17;18.17;;;16.40;99.90;;;;;;5046654;28;20053;-75
2024/02/07 09:40:39;;;;;;;32.03;17.73;;;16.40;99.90;;;;;;5048165;28;20377;-75
2024/02/07 09:43:05;;;;;;;33.33;19.57;;;16.30;99.90;;;;;;5046293;28;20431;-75
2024/02/07 09:45:35;;;;;;;34.33;19.13;;;16.20;99.90;;;;;;5046166;28;20033;-74
2024/02/07 09:48:20;;;;;;;35.78;18.52;;;16.20;99.90;;;;;;5048989;28;20064;-75
2024/02/07 09:50:51;;;;;;;34.35;16.52;;;16.20;99.90;;;;;;5047422;28;20111;-76
2024/02/07 09:53:19;;;;;;;33.10;17.83;;;16.30;99.90;;;;;;5050754;28;20033;-75
2024/02/07 09:55:46;;;;;;;28.33;17.15;;;16.40;99.90;;;;;;5049021;28;20021;-75
2024/02/07 09:58:13;;;;;;;30.40;15.68;;;16.40;99.90;;;;;;5046394;28;20173;-75
2024/02/07 10:00:39;;;;;;;;;;;16.60;99.90;;;;;;5044876;28;20040;-76
2024/02/07 10:03:07;;;;;;;28.05;15.10;;;16.80;99.90;;;;;;5049276;28;19909;-76
2024/02/07 10:05:35;;;;;;;34.78;14.57;;;16.80;99.90;;;;;;5046205;28;20029;-75
2024/02/07 10:08:01;;;;;;;25.38;13.70;;;16.80;99.90;;;;;;5034287;28;20060;-74
2024/02/07 10:10:28;;;;;;;24.25;13.23;;;16.70;99.90;;;;;;5043080;28;20490;-76
2024/02/07 10:12:56;;;;;;;;;;;16.70;99.90;;;;;;5048541;28;20043;-77
2024/02/07 10:15:25;;;;;;;25.95;13.30;;;16.70;99.90;;;;;;5051311;28;19988;-75
2024/02/07 10:17:51;;;;;;;17.30;12.35;;;16.70;99.90;;;;;;5051470;28;20041;-75
2024/02/07 10:20:17;;;;;;;20.80;12.80;;;16.70;99.90;;;;;;5051696;28;20057;-76
2024/02/07 10:22:43;;;;;;;18.33;11.30;;;16.70;99.90;;;;;;5050746;28;20075;-74
2024/02/07 10:25:14;;;;;;;15.63;11.77;;;16.70;99.90;;;;;;5050558;28;20055;-75
2024/02/07 10:27:40;;;;;;;22.90;11.40;;;16.80;99.90;;;;;;5051253;28;20343;-74
2024/02/07 10:30:08;;;;;;;20.67;11.10;;;16.90;99.90;;;;;;5051624;28;20084;-76
2024/02/07 10:32:35;;;;;;;20.20;11.60;;;17.10;99.90;;;;;;5048681;28;20036;-74
2024/02/07 10:35:02;;;;;;;27.38;16.10;;;17.40;99.90;;;;;;5040653;28;20054;-75
2024/02/07 10:37:27;;;;;;;21.60;12.75;;;17.50;99.90;;;;;;5048977;28;20021;-76
2024/02/07 10:40:04;;;;;;;25.23;11.93;;;17.80;99.90;;;;;;5052542;28;20040;-75
2024/02/07 10:42:30;;;;;;;20.98;10.57;;;18.20;99.90;;;;;;5050127;28;20029;-76
2024/02/07 10:45:06;;;;;;;21.75;10.65;;;18.40;99.90;;;;;;5046653;28;20037;-76
2024/02/07 10:47:33;;;;;;;;;;;18.20;99.90;;;;;;5051543;28;20102;-75
2024/02/07 10:49:59;;;;;;;24.10;10.90;;;18.10;99.90;;;;;;5037833;28;20008;-77
2024/02/07 10:52:25;;;;;;;24.92;11.07;;;18.10;99.90;;;;;;5042274;28;20415;-77
2024/02/07 10:54:52;;;;;;;16.98;10.65;;;18.10;99.90;;;;;;5043326;28;20029;-76
2024/02/07 10:57:25;;;;;;;14.50;9.45;;;18.10;99.90;;;;;;5052038;28;20425;-77
2024/02/07 10:59:53;;;;;;;14.65;9.80;;;18.20;99.90;;;;;;5049377;28;20691;-75
2024/02/07 11:02:19;;;;;;;19.70;10.00;;;18.40;99.90;;;;;;5049457;28;20470;-76
2024/02/07 11:04:45;;;;;;;15.60;9.73;;;18.60;99.90;;;;;;5049133;28;20032;-75
2024/02/07 11:07:14;;;;;;;16.33;9.40;;;18.80;99.90;;;;;;5050424;28;20304;-77
2024/02/07 11:09:44;;;;;;;19.58;9.27;;;18.90;99.90;;;;;;5047991;28;20543;-77
2024/02/07 11:12:14;;;;;;;18.83;9.13;;;18.90;99.90;;;;;;5036004;28;20041;-77
2024/02/07 11:14:44;;;;;;;21.45;14.20;;;18.90;99.90;;;;;;5044032;28;20038;-77
2024/02/07 11:17:11;;;;;;;26.35;8.95;;;19.00;99.90;;;;;;5049474;28;20417;-76
2024/02/07 11:19:38;;;;;;;22.42;10.02;;;19.00;99.90;;;;;;5034916;28;20135;-76
2024/02/07 11:22:06;;;;;;;16.33;8.95;;;19.10;99.90;;;;;;5040399;28;20037;-77
2024/02/07 11:24:33;;;;;;;25.83;8.65;;;19.20;99.90;;;;;;5039074;28;20033;-77
2024/02/07 11:27:00;;;;;;;26.50;9.38;;;19.40;99.90;;;;;;5048740;28;20021;-76
2024/02/07 11:29:27;;;;;;;15.90;9.48;;;19.40;99.90;;;;;;5049894;28;20539;-76
2024/02/07 11:31:53;;;;;;;15.13;7.43;;;19.50;99.90;;;;;;5051058;28;20025;-77
2024/02/07 11:34:20;;;;;;;;;;;19.50;99.90;;;;;;5041514;28;20732;-75
2024/02/07 11:36:55;;;;;;;20.40;8.98;;;19.60;99.90;;;;;;5044724;28;19999;-76
2024/02/07 11:39:23;;;;;;;18.85;7.57;;;19.50;99.90;;;;;;5051309;28;20033;-75
2024/02/07 11:41:49;;;;;;;11.00;7.20;;;19.70;99.90;;;;;;5046492;28;20052;-77
2024/02/07 11:44:23;;;;;;;16.17;7.80;;;19.80;99.90;;;;;;5047012;28;20490;-76
2024/02/07 11:46:54;;;;;;;18.13;7.13;;;19.80;99.90;;;;;;5041657;28;20056;-75
2024/02/07 11:49:29;;;;;;;19.48;6.72;;;19.80;99.90;;;;;;5049759;28;20033;-76
2024/02/07 11:51:59;;;;;;;13.45;5.90;;;19.80;99.90;;;;;;5050360;28;20048;-77
2024/02/07 11:54:36;;;;;;;14.52;6.45;;;19.80;99.90;;;;;;5049282;28;20025;-76
2024/02/07 11:57:02;;;;;;;21.73;6.72;;;19.70;99.90;;;;;;5049195;28;20029;-76
2024/02/07 11:59:29;;;;;;;11.90;5.80;;;19.60;99.90;;;;;;5046868;28;20067;-75
2024/02/07 12:01:55;;;;;;;24.55;6.20;;;19.50;99.90;;;;;;5046294;28;20512;-76
2024/02/07 12:04:20;;;;;;;11.40;6.25;;;19.40;99.90;;;;;;5051926;28;20033;-77
2024/02/07 12:06:46;;;;;;;14.13;5.47;;;19.40;99.90;;;;;;5050917;28;20037;-74
2024/02/07 12:09:12;;;;;;;16.35;6.45;;;19.30;99.90;;;;;;5051898;28;20067;-76
2024/02/07 12:11:38;;;;;;;19.50;6.00;;;19.30;99.90;;;;;;5047435;28;20029;-77
2024/02/07 12:14:04;;;;;;;23.00;6.40;;;19.30;99.90;;;;;;5050488;28;20484;-76
2024/02/07 12:16:29;;;;;;;13.67;5.73;;;19.30;99.90;;;;;;5051995;28;20036;-76
2024/02/07 12:18:56;;;;;;;19.63;6.13;;;19.30;99.90;;;;;;5049444;28;20266;-76
2024/02/07 12:21:21;;;;;;;9.43;5.07;;;19.30;99.90;;;;;;5049110;28;20044;-76
2024/02/07 12:23:47;;;;;;;11.60;5.60;;;19.30;99.90;;;;;;5050537;28;20033;-75
2024/02/07 12:26:13;;;;;;;16.23;5.63;;;19.30;99.90;;;;;;5050553;28;20422;-75
2024/02/07 12:28:38;;;;;;;11.60;5.30;;;19.30;99.90;;;;;;5052023;28;20077;-76
2024/02/07 12:31:04;;;;;;;18.03;5.67;;;19.30;99.90;;;;;;5047126;28;20421;-74
2024/02/07 12:33:30;;;;;;;19.87;5.10;;;19.20;99.90;;;;;;5050006;28;20043;-75
2024/02/07 12:35:59;;;;;;;12.20;5.07;;;19.30;99.90;;;;;;5037101;28;20032;-75
2024/02/07 12:38:25;;;;;;;10.95;5.10;;;19.20;99.90;;;;;;5042311;28;20112;-76
2024/02/07 12:40:53;;;;;;;13.13;5.28;;;19.20;99.90;;;;;;5048195;28;20082;-77
2024/02/07 12:43:23;;;;;;;17.10;5.40;;;19.20;99.90;;;;;;5043685;28;20037;-76
2024/02/07 12:45:51;;;;;;;14.43;5.18;;;19.20;99.90;;;;;;5042309;28;20022;-77
2024/02/07 12:48:17;;;;;;;11.98;4.47;;;19.10;99.90;;;;;;5050034;28;20040;-77
2024/02/07 12:50:43;;;;;;;7.93;4.28;;;19.00;99.90;;;;;;5049115;28;20021;-77
2024/02/07 12:53:09;;;;;;;10.55;4.47;;;19.00;99.90;;;;;;5044772;28;20038;-76
2024/02/07 12:55:35;;;;;;;13.63;4.47;;;19.00;99.90;;;;;;5056827;28;20074;-77
2024/02/07 12:58:04;;;;;;;18.20;5.07;;;19.00;99.90;;;;;;5050173;28;20025;-75
2024/02/07 13:00:30;;;;;;;19.48;4.15;;;19.00;99.90;;;;;;5049500;28;20064;-76
2024/02/07 13:02:56;;;;;;;24.07;4.53;;;19.00;99.90;;;;;;5037505;28;20065;-77
2024/02/07 13:05:22;;;;;;;15.25;4.00;;;18.90;99.90;;;;;;5050107;28;20813;-76
2024/02/07 13:07:49;;;;;;;11.70;3.80;;;18.90;99.90;;;;;;5045319;28;20116;-77
2024/02/07 13:10:15;;;;;;;14.50;3.90;;;18.90;99.90;;;;;;5049932;28;20103;-77
2024/02/07 13:12:41;;;;;;;20.60;4.88;;;18.80;99.90;;;;;;5041436;28;20029;-77
2024/02/07 13:15:07;;;;;;;18.63;4.33;;;18.80;99.90;;;;;;5049688;28;20393;-77
2024/02/07 13:17:36;;;;;;;21.42;4.10;;;18.80;99.90;;;;;;5049685;28;20036;-76
2024/02/07 13:20:06;;;;;;;18.05;3.85;;;18.70;99.90;;;;;;5049377;28;20029;-76
2024/02/07 13:22:32;;;;;;;11.65;4.00;;;18.70;99.90;;;;;;5048007;28;20128;-76
2024/02/07 13:25:08;;;;;;;13.70;4.30;;;18.60;99.90;;;;;;5049268;28;20132;-76
2024/02/07 13:27:34;;;;;;;13.65;3.78;;;18.60;99.90;;;;;;5049391;28;20566;-77
2024/02/07 13:30:00;;;;;;;12.13;3.57;;;18.60;99.90;;;;;;5043299;28;20036;-79
2024/02/07 13:32:26;;;;;;;20.90;3.50;;;18.60;99.90;;;;;;5041035;28;20269;-78
2024/02/07 13:34:51;;;;;;;11.47;3.53;;;18.50;99.90;;;;;;5049828;28;20386;-75
2024/02/07 13:37:17;;;;;;;9.87;3.40;;;18.50;99.90;;;;;;5046872;28;20037;-75
2024/02/07 13:39:43;;;;;;;9.23;3.40;;;18.50;99.90;;;;;;5049842;28;20025;-75
2024/02/07 13:42:08;;;;;;;13.13;3.40;;;18.50;99.90;;;;;;5048441;28;20163;-75
2024/02/07 13:44:34;;;;;;;8.90;3.73;;;18.50;99.90;;;;;;5048787;28;20120;-75
2024/02/07 13:47:03;;;;;;;11.63;3.20;;;18.40;99.90;;;;;;5048682;28;20185;-78
2024/02/07 13:49:29;;;;;;;11.18;3.08;;;18.40;99.90;;;;;;5052122;28;20025;-76